sensor_id;sensor_type;location;lat;lon;timestamp;temperature;humidity
72865;DHT22;61000;48.120;11.548;2023-07-29T00:02:15;16.70;99.90
72865;DHT22;61000;48.120;11.548;2023-07-29T00:04:43;16.80;99.90
72865;DHT22;61000;48.120;11.548;2023-07-29T00:07:10;16.70;99.90
72865;DHT22;61000;48.120;11.548;2023-07-29T00:09:37;16.70;99.90
72865;DHT22;61000;48.120;11.548;2023-07-29T00:12:04;16.70;99.90
72865;DHT22;61000;48.120;11.548;2023-07-29T00:14:31;16.70;99.90
72865;DHT22;61000;48.120;11.548;2023-07-29T00:16:58;16.70;99.90
72865;DHT22;61000;48.120;11.548;2023-07-29T00:19:25;16.70;99.90
72865;DHT22;61000;48.120;11.548;2023-07-29T00:21:55;16.80;99.90
72865;DHT22;61000;48.120;11.548;2023-07-29T00:24:22;16.70;99.90
72865;DHT22;61000;48.120;11.548;2023-07-29T00:26:49;16.80;99.90
72865;DHT22;61000;48.120;11.548;2023-07-29T00:29:15;16.70;99.90
72865;DHT22;61000;48.120;11.548;2023-07-29T00:31:43;16.70;99.90
72865;DHT22;61000;48.120;11.548;2023-07-29T00:34:10;16.70;99.90
72865;DHT22;61000;48.120;11.548;2023-07-29T00:36:36;16.70;99.90
72865;DHT22;61000;48.120;11.548;2023-07-29T00:39:05;16.70;99.90
72865;DHT22;61000;48.120;11.548;2023-07-29T00:41:31;16.70;99.90
72865;DHT22;61000;48.120;11.548;2023-07-29T00:43:59;16.80;99.90
72865;DHT22;61000;48.120;11.548;2023-07-29T00:46:29;16.70;99.90
72865;DHT22;61000;48.120;11.548;2023-07-29T00:48:56;16.80;99.90
72865;DHT22;61000;48.120;11.548;2023-07-29T00:51:23;16.70;99.90
72865;DHT22;61000;48.120;11.548;2023-07-29T00:53:50;16.70;99.90
72865;DHT22;61000;48.120;11.548;2023-07-29T00:56:17;16.80;99.90
72865;DHT22;61000;48.120;11.548;2023-07-29T00:58:44;16.70;99.90
72865;DHT22;61000;48.120;11.548;2023-07-29T01:01:12;16.70;99.90
72865;DHT22;61000;48.120;11.548;2023-07-29T01:03:39;16.80;99.90
72865;DHT22;61000;48.120;11.548;2023-07-29T01:06:19;16.70;99.90
72865;DHT22;61000;48.120;11.548;2023-07-29T01:08:55;16.80;99.90
72865;DHT22;61000;48.120;11.548;2023-07-29T01:11:35;16.60;99.90
72865;DHT22;61000;48.120;11.548;2023-07-29T01:14:10;16.70;99.90
72865;DHT22;61000;48.120;11.548;2023-07-29T01:16:41;16.60;99.90
72865;DHT22;61000;48.120;11.548;2023-07-29T01:19:20;16.50;99.90
72865;DHT22;61000;48.120;11.548;2023-07-29T01:21:51;16.50;99.90
72865;DHT22;61000;48.120;11.548;2023-07-29T01:24:19;16.60;99.90
72865;DHT22;61000;48.120;11.548;2023-07-29T01:26:46;16.50;99.90
72865;DHT22;61000;48.120;11.548;2023-07-29T01:29:13;16.40;99.90
72865;DHT22;61000;48.120;11.548;2023-07-29T01:31:43;16.50;99.90
72865;DHT22;61000;48.120;11.548;2023-07-29T01:34:17;16.60;99.90
72865;DHT22;61000;48.120;11.548;2023-07-29T01:36:49;16.40;99.90
72865;DHT22;61000;48.120;11.548;2023-07-29T01:39:21;16.40;99.90
72865;DHT22;61000;48.120;11.548;2023-07-29T01:41:48;16.40;99.90
72865;DHT22;61000;48.120;11.548;2023-07-29T01:44:17;16.50;99.90
72865;DHT22;61000;48.120;11.548;2023-07-29T01:46:44;16.50;99.90
72865;DHT22;61000;48.120;11.548;2023-07-29T01:49:11;16.40;99.90
72865;DHT22;61000;48.120;11.548;2023-07-29T01:51:38;16.30;99.90
72865;DHT22;61000;48.120;11.548;2023-07-29T01:54:05;16.20;99.90
72865;DHT22;61000;48.120;11.548;2023-07-29T01:56:33;16.20;99.90
72865;DHT22;61000;48.120;11.548;2023-07-29T01:59:00;16.20;99.90
72865;DHT22;61000;48.120;11.548;2023-07-29T02:01:28;16.10;99.90
72865;DHT22;61000;48.120;11.548;2023-07-29T02:03:55;16.10;99.90
72865;DHT22;61000;48.120;11.548;2023-07-29T02:06:23;16.20;99.90
72865;DHT22;61000;48.120;11.548;2023-07-29T02:08:50;16.20;99.90
72865;DHT22;61000;48.120;11.548;2023-07-29T02:11:17;16.20;99.90
72865;DHT22;61000;48.120;11.548;2023-07-29T02:13:47;16.20;99.90
72865;DHT22;61000;48.120;11.548;2023-07-29T02:16:14;16.10;99.90
72865;DHT22;61000;48.120;11.548;2023-07-29T02:18:41;16.20;99.90
72865;DHT22;61000;48.120;11.548;2023-07-29T02:21:08;16.10;99.90
72865;DHT22;61000;48.120;11.548;2023-07-29T02:23:35;16.10;99.90
72865;DHT22;61000;48.120;11.548;2023-07-29T02:26:01;16.10;99.90
72865;DHT22;61000;48.120;11.548;2023-07-29T02:28:28;16.10;99.90
72865;DHT22;61000;48.120;11.548;2023-07-29T02:31:14;16.00;99.90
72865;DHT22;61000;48.120;11.548;2023-07-29T02:33:41;16.00;99.90
72865;DHT22;61000;48.120;11.548;2023-07-29T02:36:09;16.00;99.90
72865;DHT22;61000;48.120;11.548;2023-07-29T02:38:36;16.00;99.90
72865;DHT22;61000;48.120;11.548;2023-07-29T02:41:03;16.00;99.90
72865;DHT22;61000;48.120;11.548;2023-07-29T02:43:29;15.90;99.90
72865;DHT22;61000;48.120;11.548;2023-07-29T02:45:56;15.90;99.90
72865;DHT22;61000;48.120;11.548;2023-07-29T02:48:25;16.00;99.90
72865;DHT22;61000;48.120;11.548;2023-07-29T02:50:52;16.10;99.90
72865;DHT22;61000;48.120;11.548;2023-07-29T02:53:18;16.00;99.90
72865;DHT22;61000;48.120;11.548;2023-07-29T02:55:45;16.00;99.90
72865;DHT22;61000;48.120;11.548;2023-07-29T02:58:12;16.00;99.90
72865;DHT22;61000;48.120;11.548;2023-07-29T03:00:39;16.00;99.90
72865;DHT22;61000;48.120;11.548;2023-07-29T03:03:07;16.00;99.90
72865;DHT22;61000;48.120;11.548;2023-07-29T03:05:35;16.00;99.90
72865;DHT22;61000;48.120;11.548;2023-07-29T03:08:03;16.00;99.90
72865;DHT22;61000;48.120;11.548;2023-07-29T03:10:31;15.90;99.90
72865;DHT22;61000;48.120;11.548;2023-07-29T03:12:57;15.90;99.90
72865;DHT22;61000;48.120;11.548;2023-07-29T03:15:24;15.90;99.90
72865;DHT22;61000;48.120;11.548;2023-07-29T03:17:52;15.90;99.90
72865;DHT22;61000;48.120;11.548;2023-07-29T03:20:19;15.90;99.90
72865;DHT22;61000;48.120;11.548;2023-07-29T03:22:47;15.90;99.90
72865;DHT22;61000;48.120;11.548;2023-07-29T03:25:14;15.90;99.90
72865;DHT22;61000;48.120;11.548;2023-07-29T03:27:41;15.80;99.90
72865;DHT22;61000;48.120;11.548;2023-07-29T03:30:09;15.80;99.90
72865;DHT22;61000;48.120;11.548;2023-07-29T03:32:37;15.80;99.90
72865;DHT22;61000;48.120;11.548;2023-07-29T03:35:05;15.90;99.90
72865;DHT22;61000;48.120;11.548;2023-07-29T03:37:32;16.00;99.90
72865;DHT22;61000;48.120;11.548;2023-07-29T03:40:00;16.10;99.90
72865;DHT22;61000;48.120;11.548;2023-07-29T03:42:27;16.00;99.90
72865;DHT22;61000;48.120;11.548;2023-07-29T03:44:54;16.10;99.90
72865;DHT22;61000;48.120;11.548;2023-07-29T03:47:21;16.00;99.90
72865;DHT22;61000;48.120;11.548;2023-07-29T03:49:47;16.10;99.90
72865;DHT22;61000;48.120;11.548;2023-07-29T03:52:18;16.00;99.90
72865;DHT22;61000;48.120;11.548;2023-07-29T03:54:45;16.10;99.90
72865;DHT22;61000;48.120;11.548;2023-07-29T03:57:13;16.10;99.90
72865;DHT22;61000;48.120;11.548;2023-07-29T03:59:40;16.10;99.90
72865;DHT22;61000;48.120;11.548;2023-07-29T04:02:06;16.10;99.90
72865;DHT22;61000;48.120;11.548;2023-07-29T04:04:33;16.00;99.90
72865;DHT22;61000;48.120;11.548;2023-07-29T04:07:00;16.10;99.90
72865;DHT22;61000;48.120;11.548;2023-07-29T04:09:27;16.10;99.90
72865;DHT22;61000;48.120;11.548;2023-07-29T04:11:54;16.10;99.90
72865;DHT22;61000;48.120;11.548;2023-07-29T04:14:23;16.20;99.90
72865;DHT22;61000;48.120;11.548;2023-07-29T04:16:50;16.20;99.90
72865;DHT22;61000;48.120;11.548;2023-07-29T04:19:16;16.20;99.90
72865;DHT22;61000;48.120;11.548;2023-07-29T04:21:43;16.30;99.90
72865;DHT22;61000;48.120;11.548;2023-07-29T04:24:11;16.30;99.90
72865;DHT22;61000;48.120;11.548;2023-07-29T04:26:38;16.30;99.90
72865;DHT22;61000;48.120;11.548;2023-07-29T04:29:05;16.30;99.90
72865;DHT22;61000;48.120;11.548;2023-07-29T04:31:33;16.30;99.90
72865;DHT22;61000;48.120;11.548;2023-07-29T04:34:00;16.20;99.90
72865;DHT22;61000;48.120;11.548;2023-07-29T04:36:28;16.30;99.90
72865;DHT22;61000;48.120;11.548;2023-07-29T04:38:55;16.20;99.90
72865;DHT22;61000;48.120;11.548;2023-07-29T04:41:21;16.30;99.90
72865;DHT22;61000;48.120;11.548;2023-07-29T04:43:50;16.20;99.90
72865;DHT22;61000;48.120;11.548;2023-07-29T04:46:17;16.20;99.90
72865;DHT22;61000;48.120;11.548;2023-07-29T04:48:46;16.30;99.90
72865;DHT22;61000;48.120;11.548;2023-07-29T04:51:13;16.20;99.90
72865;DHT22;61000;48.120;11.548;2023-07-29T04:53:40;16.20;99.90
72865;DHT22;61000;48.120;11.548;2023-07-29T04:56:07;16.30;99.90
72865;DHT22;61000;48.120;11.548;2023-07-29T04:58:34;16.40;99.90
72865;DHT22;61000;48.120;11.548;2023-07-29T05:01:02;16.40;99.90
72865;DHT22;61000;48.120;11.548;2023-07-29T05:03:29;16.50;99.90
72865;DHT22;61000;48.120;11.548;2023-07-29T05:05:58;16.50;99.90
72865;DHT22;61000;48.120;11.548;2023-07-29T05:08:26;16.60;99.90
72865;DHT22;61000;48.120;11.548;2023-07-29T05:10:53;16.70;99.90
72865;DHT22;61000;48.120;11.548;2023-07-29T05:13:23;16.90;99.90
72865;DHT22;61000;48.120;11.548;2023-07-29T05:15:50;17.00;99.90
72865;DHT22;61000;48.120;11.548;2023-07-29T05:18:17;17.00;99.90
72865;DHT22;61000;48.120;11.548;2023-07-29T05:20:44;17.10;99.90
72865;DHT22;61000;48.120;11.548;2023-07-29T05:23:12;17.20;99.90
72865;DHT22;61000;48.120;11.548;2023-07-29T05:25:39;17.30;99.90
72865;DHT22;61000;48.120;11.548;2023-07-29T05:28:06;17.40;99.90
72865;DHT22;61000;48.120;11.548;2023-07-29T05:30:33;17.40;99.90
72865;DHT22;61000;48.120;11.548;2023-07-29T05:33:03;17.50;99.90
72865;DHT22;61000;48.120;11.548;2023-07-29T05:35:30;17.60;99.90
72865;DHT22;61000;48.120;11.548;2023-07-29T05:37:58;17.60;99.90
72865;DHT22;61000;48.120;11.548;2023-07-29T05:40:27;17.70;99.90
72865;DHT22;61000;48.120;11.548;2023-07-29T05:42:53;17.80;99.90
72865;DHT22;61000;48.120;11.548;2023-07-29T05:45:20;17.90;99.90
72865;DHT22;61000;48.120;11.548;2023-07-29T05:47:47;17.90;99.90
72865;DHT22;61000;48.120;11.548;2023-07-29T05:50:14;18.00;99.90
72865;DHT22;61000;48.120;11.548;2023-07-29T05:52:41;18.00;99.90
72865;DHT22;61000;48.120;11.548;2023-07-29T05:55:08;18.10;99.90
72865;DHT22;61000;48.120;11.548;2023-07-29T05:57:36;18.20;99.90
72865;DHT22;61000;48.120;11.548;2023-07-29T06:00:07;18.10;99.90
72865;DHT22;61000;48.120;11.548;2023-07-29T06:02:38;18.10;99.90
72865;DHT22;61000;48.120;11.548;2023-07-29T06:05:19;18.00;99.90
72865;DHT22;61000;48.120;11.548;2023-07-29T06:07:46;17.90;99.90
72865;DHT22;61000;48.120;11.548;2023-07-29T06:10:15;17.80;99.90
72865;DHT22;61000;48.120;11.548;2023-07-29T06:12:45;17.70;99.90
72865;DHT22;61000;48.120;11.548;2023-07-29T06:15:12;17.60;99.90
72865;DHT22;61000;48.120;11.548;2023-07-29T06:17:40;17.50;99.90
72865;DHT22;61000;48.120;11.548;2023-07-29T06:20:08;17.40;99.90
72865;DHT22;61000;48.120;11.548;2023-07-29T06:22:35;17.30;99.90
72865;DHT22;61000;48.120;11.548;2023-07-29T06:25:02;17.30;99.90
72865;DHT22;61000;48.120;11.548;2023-07-29T06:27:29;17.20;99.90
72865;DHT22;61000;48.120;11.548;2023-07-29T06:29:57;17.20;99.90
72865;DHT22;61000;48.120;11.548;2023-07-29T06:32:24;17.20;99.90
72865;DHT22;61000;48.120;11.548;2023-07-29T06:34:51;17.10;99.90
72865;DHT22;61000;48.120;11.548;2023-07-29T06:37:21;17.10;99.90
72865;DHT22;61000;48.120;11.548;2023-07-29T06:39:48;17.20;99.90
72865;DHT22;61000;48.120;11.548;2023-07-29T06:42:15;17.20;99.90
72865;DHT22;61000;48.120;11.548;2023-07-29T06:44:42;17.20;99.90
72865;DHT22;61000;48.120;11.548;2023-07-29T06:47:12;17.20;99.90
72865;DHT22;61000;48.120;11.548;2023-07-29T06:49:39;17.10;99.90
72865;DHT22;61000;48.120;11.548;2023-07-29T06:52:06;17.10;99.90
72865;DHT22;61000;48.120;11.548;2023-07-29T06:54:33;17.10;99.90
72865;DHT22;61000;48.120;11.548;2023-07-29T06:57:00;17.00;99.90
72865;DHT22;61000;48.120;11.548;2023-07-29T06:59:27;17.00;99.90
72865;DHT22;61000;48.120;11.548;2023-07-29T07:01:54;16.90;99.90
72865;DHT22;61000;48.120;11.548;2023-07-29T07:04:22;16.90;99.90
72865;DHT22;61000;48.120;11.548;2023-07-29T07:06:49;16.90;99.90
72865;DHT22;61000;48.120;11.548;2023-07-29T07:09:15;16.90;99.90
72865;DHT22;61000;48.120;11.548;2023-07-29T07:11:42;16.90;99.90
72865;DHT22;61000;48.120;11.548;2023-07-29T07:14:09;16.90;99.90
72865;DHT22;61000;48.120;11.548;2023-07-29T07:16:36;16.90;99.90
72865;DHT22;61000;48.120;11.548;2023-07-29T07:19:04;16.90;99.90
72865;DHT22;61000;48.120;11.548;2023-07-29T07:21:33;16.90;99.90
72865;DHT22;61000;48.120;11.548;2023-07-29T07:24:00;16.90;99.90
72865;DHT22;61000;48.120;11.548;2023-07-29T07:26:27;17.00;99.90
72865;DHT22;61000;48.120;11.548;2023-07-29T07:28:54;17.00;99.90
72865;DHT22;61000;48.120;11.548;2023-07-29T07:31:22;17.10;99.90
72865;DHT22;61000;48.120;11.548;2023-07-29T07:33:49;17.10;99.90
72865;DHT22;61000;48.120;11.548;2023-07-29T07:36:16;17.20;99.90
72865;DHT22;61000;48.120;11.548;2023-07-29T07:38:44;17.20;99.90
72865;DHT22;61000;48.120;11.548;2023-07-29T07:41:11;17.20;99.90
72865;DHT22;61000;48.120;11.548;2023-07-29T07:43:38;17.20;99.90
72865;DHT22;61000;48.120;11.548;2023-07-29T07:46:05;17.20;99.90
72865;DHT22;61000;48.120;11.548;2023-07-29T07:48:32;17.20;99.90
72865;DHT22;61000;48.120;11.548;2023-07-29T07:50:59;17.30;99.90
72865;DHT22;61000;48.120;11.548;2023-07-29T07:53:26;17.30;99.90
72865;DHT22;61000;48.120;11.548;2023-07-29T07:55:54;17.40;99.90
72865;DHT22;61000;48.120;11.548;2023-07-29T07:58:21;17.50;99.90
72865;DHT22;61000;48.120;11.548;2023-07-29T08:00:48;17.50;99.90
72865;DHT22;61000;48.120;11.548;2023-07-29T08:03:15;17.50;99.90
72865;DHT22;61000;48.120;11.548;2023-07-29T08:05:41;17.60;99.90
72865;DHT22;61000;48.120;11.548;2023-07-29T08:08:08;17.60;99.90
72865;DHT22;61000;48.120;11.548;2023-07-29T08:10:35;17.70;99.90
72865;DHT22;61000;48.120;11.548;2023-07-29T08:13:03;17.70;99.90
72865;DHT22;61000;48.120;11.548;2023-07-29T08:15:30;17.80;99.90
72865;DHT22;61000;48.120;11.548;2023-07-29T08:17:57;17.90;99.90
72865;DHT22;61000;48.120;11.548;2023-07-29T08:20:24;18.00;99.90
72865;DHT22;61000;48.120;11.548;2023-07-29T08:22:51;18.10;99.90
72865;DHT22;61000;48.120;11.548;2023-07-29T08:25:18;18.10;99.90
72865;DHT22;61000;48.120;11.548;2023-07-29T08:27:44;18.10;99.90
72865;DHT22;61000;48.120;11.548;2023-07-29T08:30:13;18.20;99.90
72865;DHT22;61000;48.120;11.548;2023-07-29T08:32:41;18.30;99.90
72865;DHT22;61000;48.120;11.548;2023-07-29T08:35:08;18.40;99.90
72865;DHT22;61000;48.120;11.548;2023-07-29T08:37:35;18.50;99.90
72865;DHT22;61000;48.120;11.548;2023-07-29T08:40:02;18.60;99.90
72865;DHT22;61000;48.120;11.548;2023-07-29T08:42:31;18.60;99.90
72865;DHT22;61000;48.120;11.548;2023-07-29T08:45:07;18.60;99.90
72865;DHT22;61000;48.120;11.548;2023-07-29T08:47:35;18.70;99.90
72865;DHT22;61000;48.120;11.548;2023-07-29T08:50:03;18.80;99.90
72865;DHT22;61000;48.120;11.548;2023-07-29T08:52:31;18.80;99.90
72865;DHT22;61000;48.120;11.548;2023-07-29T08:55:00;18.90;99.90
72865;DHT22;61000;48.120;11.548;2023-07-29T08:57:27;19.00;99.90
72865;DHT22;61000;48.120;11.548;2023-07-29T08:59:55;19.00;99.90
72865;DHT22;61000;48.120;11.548;2023-07-29T09:02:23;19.00;99.90
72865;DHT22;61000;48.120;11.548;2023-07-29T09:04:51;19.20;99.90
72865;DHT22;61000;48.120;11.548;2023-07-29T09:07:18;19.30;99.90
72865;DHT22;61000;48.120;11.548;2023-07-29T09:09:46;19.40;99.90
72865;DHT22;61000;48.120;11.548;2023-07-29T09:12:13;19.50;99.90
72865;DHT22;61000;48.120;11.548;2023-07-29T09:14:40;19.70;99.90
72865;DHT22;61000;48.120;11.548;2023-07-29T09:17:07;19.90;99.90
72865;DHT22;61000;48.120;11.548;2023-07-29T09:19:35;20.00;99.90
72865;DHT22;61000;48.120;11.548;2023-07-29T09:24:31;20.50;99.90
72865;DHT22;61000;48.120;11.548;2023-07-29T09:26:58;21.40;99.90
72865;DHT22;61000;48.120;11.548;2023-07-29T09:29:28;21.90;99.90
72865;DHT22;61000;48.120;11.548;2023-07-29T09:34:43;22.90;99.90
72865;DHT22;61000;48.120;11.548;2023-07-29T09:37:15;23.60;99.90
72865;DHT22;61000;48.120;11.548;2023-07-29T09:39:44;23.90;99.90
72865;DHT22;61000;48.120;11.548;2023-07-29T09:42:11;24.30;99.90
72865;DHT22;61000;48.120;11.548;2023-07-29T09:44:42;24.20;99.90
72865;DHT22;61000;48.120;11.548;2023-07-29T09:47:09;24.60;99.90
72865;DHT22;61000;48.120;11.548;2023-07-29T09:49:36;25.00;99.90
72865;DHT22;61000;48.120;11.548;2023-07-29T09:52:03;25.60;99.90
72865;DHT22;61000;48.120;11.548;2023-07-29T09:54:32;25.80;99.90
72865;DHT22;61000;48.120;11.548;2023-07-29T09:56:59;25.20;99.90
72865;DHT22;61000;48.120;11.548;2023-07-29T09:59:26;25.40;99.90
72865;DHT22;61000;48.120;11.548;2023-07-29T10:01:53;25.40;99.90
72865;DHT22;61000;48.120;11.548;2023-07-29T10:04:20;25.20;98.90
72865;DHT22;61000;48.120;11.548;2023-07-29T10:06:48;25.10;99.90
72865;DHT22;61000;48.120;11.548;2023-07-29T10:09:15;24.90;98.60
72865;DHT22;61000;48.120;11.548;2023-07-29T10:11:44;24.90;98.80
72865;DHT22;61000;48.120;11.548;2023-07-29T10:14:12;24.80;99.30
72865;DHT22;61000;48.120;11.548;2023-07-29T10:16:40;25.00;98.20
72865;DHT22;61000;48.120;11.548;2023-07-29T10:19:07;25.20;99.20
72865;DHT22;61000;48.120;11.548;2023-07-29T10:21:35;25.20;97.90
72865;DHT22;61000;48.120;11.548;2023-07-29T10:24:08;25.10;97.80
72865;DHT22;61000;48.120;11.548;2023-07-29T10:26:37;25.10;97.60
72865;DHT22;61000;48.120;11.548;2023-07-29T10:29:10;25.50;97.30
72865;DHT22;61000;48.120;11.548;2023-07-29T10:31:40;25.90;96.40
72865;DHT22;61000;48.120;11.548;2023-07-29T10:34:09;26.40;97.30
72865;DHT22;61000;48.120;11.548;2023-07-29T10:36:37;26.50;95.90
72865;DHT22;61000;48.120;11.548;2023-07-29T10:39:05;26.90;94.40
72865;DHT22;61000;48.120;11.548;2023-07-29T10:41:54;27.00;95.30
72865;DHT22;61000;48.120;11.548;2023-07-29T10:44:55;27.10;94.30
72865;DHT22;61000;48.120;11.548;2023-07-29T10:47:24;27.10;94.10
72865;DHT22;61000;48.120;11.548;2023-07-29T10:49:54;27.00;94.50
72865;DHT22;61000;48.120;11.548;2023-07-29T10:52:39;26.80;93.90
72865;DHT22;61000;48.120;11.548;2023-07-29T10:55:24;26.70;94.30
72865;DHT22;61000;48.120;11.548;2023-07-29T10:57:51;26.70;94.80
72865;DHT22;61000;48.120;11.548;2023-07-29T11:00:20;26.50;94.30
72865;DHT22;61000;48.120;11.548;2023-07-29T11:02:59;26.40;94.60
72865;DHT22;61000;48.120;11.548;2023-07-29T11:05:48;26.10;94.20
72865;DHT22;61000;48.120;11.548;2023-07-29T11:08:20;26.20;94.70
72865;DHT22;61000;48.120;11.548;2023-07-29T11:10:59;26.10;94.60
72865;DHT22;61000;48.120;11.548;2023-07-29T11:13:27;26.00;94.70
72865;DHT22;61000;48.120;11.548;2023-07-29T11:15:56;25.80;94.90
72865;DHT22;61000;48.120;11.548;2023-07-29T11:18:27;25.70;95.10
72865;DHT22;61000;48.120;11.548;2023-07-29T11:20:57;25.50;95.20
72865;DHT22;61000;48.120;11.548;2023-07-29T11:23:31;25.40;95.40
72865;DHT22;61000;48.120;11.548;2023-07-29T11:25:58;24.90;94.40
72865;DHT22;61000;48.120;11.548;2023-07-29T11:28:25;24.40;94.90
72865;DHT22;61000;48.120;11.548;2023-07-29T11:30:53;24.20;95.10
72865;DHT22;61000;48.120;11.548;2023-07-29T11:33:23;24.10;95.10
72865;DHT22;61000;48.120;11.548;2023-07-29T11:35:50;24.00;95.10
72865;DHT22;61000;48.120;11.548;2023-07-29T11:38:19;24.20;94.90
72865;DHT22;61000;48.120;11.548;2023-07-29T11:40:58;24.30;94.80
72865;DHT22;61000;48.120;11.548;2023-07-29T11:43:25;24.30;94.30
72865;DHT22;61000;48.120;11.548;2023-07-29T11:45:53;24.20;94.30
72865;DHT22;61000;48.120;11.548;2023-07-29T11:48:28;24.30;94.50
72865;DHT22;61000;48.120;11.548;2023-07-29T11:50:55;24.40;94.70
72865;DHT22;61000;48.120;11.548;2023-07-29T11:53:22;24.50;94.40
72865;DHT22;61000;48.120;11.548;2023-07-29T11:55:51;24.50;94.30
72865;DHT22;61000;48.120;11.548;2023-07-29T11:58:18;24.70;94.30
72865;DHT22;61000;48.120;11.548;2023-07-29T12:00:46;24.90;94.30
72865;DHT22;61000;48.120;11.548;2023-07-29T12:03:13;24.90;94.30
72865;DHT22;61000;48.120;11.548;2023-07-29T12:05:44;24.80;94.30
72865;DHT22;61000;48.120;11.548;2023-07-29T12:08:11;24.90;94.10
72865;DHT22;61000;48.120;11.548;2023-07-29T12:10:38;25.10;94.30
72865;DHT22;61000;48.120;11.548;2023-07-29T12:13:07;25.20;94.40
72865;DHT22;61000;48.120;11.548;2023-07-29T12:15:34;25.40;94.10
72865;DHT22;61000;48.120;11.548;2023-07-29T12:18:04;25.30;93.90
72865;DHT22;61000;48.120;11.548;2023-07-29T12:20:31;25.50;94.10
72865;DHT22;61000;48.120;11.548;2023-07-29T12:23:00;25.60;94.00
72865;DHT22;61000;48.120;11.548;2023-07-29T12:25:28;25.90;93.90
72865;DHT22;61000;48.120;11.548;2023-07-29T12:27:55;25.80;93.30
72865;DHT22;61000;48.120;11.548;2023-07-29T12:30:22;26.00;93.10
72865;DHT22;61000;48.120;11.548;2023-07-29T12:32:50;26.00;93.50
72865;DHT22;61000;48.120;11.548;2023-07-29T12:35:17;26.00;93.10
72865;DHT22;61000;48.120;11.548;2023-07-29T12:37:44;26.10;93.20
72865;DHT22;61000;48.120;11.548;2023-07-29T12:40:22;26.00;92.90
72865;DHT22;61000;48.120;11.548;2023-07-29T12:42:50;25.90;93.20
72865;DHT22;61000;48.120;11.548;2023-07-29T12:45:17;25.70;93.50
72865;DHT22;61000;48.120;11.548;2023-07-29T12:47:44;25.60;93.90
72865;DHT22;61000;48.120;11.548;2023-07-29T12:50:11;25.30;93.90
72865;DHT22;61000;48.120;11.548;2023-07-29T12:52:38;25.20;94.50
72865;DHT22;61000;48.120;11.548;2023-07-29T12:55:05;25.10;94.70
72865;DHT22;61000;48.120;11.548;2023-07-29T12:57:35;24.70;95.80
72865;DHT22;61000;48.120;11.548;2023-07-29T13:00:03;23.80;97.50
72865;DHT22;61000;48.120;11.548;2023-07-29T13:02:31;23.50;98.60
72865;DHT22;61000;48.120;11.548;2023-07-29T13:04:58;23.30;99.40
72865;DHT22;61000;48.120;11.548;2023-07-29T13:07:24;23.10;99.60
72865;DHT22;61000;48.120;11.548;2023-07-29T13:09:51;23.00;99.30
72865;DHT22;61000;48.120;11.548;2023-07-29T13:12:18;22.70;99.90
72865;DHT22;61000;48.120;11.548;2023-07-29T13:14:46;22.40;99.90
72865;DHT22;61000;48.120;11.548;2023-07-29T13:17:13;21.80;99.90
72865;DHT22;61000;48.120;11.548;2023-07-29T13:19:40;21.80;99.90
72865;DHT22;61000;48.120;11.548;2023-07-29T13:24:34;21.00;99.90
72865;DHT22;61000;48.120;11.548;2023-07-29T13:27:01;20.90;99.90
72865;DHT22;61000;48.120;11.548;2023-07-29T13:29:28;20.80;99.90
72865;DHT22;61000;48.120;11.548;2023-07-29T13:31:56;20.60;99.90
72865;DHT22;61000;48.120;11.548;2023-07-29T13:34:23;20.60;99.90
72865;DHT22;61000;48.120;11.548;2023-07-29T13:36:50;20.60;99.90
72865;DHT22;61000;48.120;11.548;2023-07-29T13:39:17;20.60;99.90
72865;DHT22;61000;48.120;11.548;2023-07-29T13:41:44;20.50;99.90
72865;DHT22;61000;48.120;11.548;2023-07-29T13:44:10;20.50;99.90
72865;DHT22;61000;48.120;11.548;2023-07-29T13:46:37;20.60;99.90
72865;DHT22;61000;48.120;11.548;2023-07-29T13:49:06;20.60;99.90
72865;DHT22;61000;48.120;11.548;2023-07-29T13:51:32;20.60;99.90
72865;DHT22;61000;48.120;11.548;2023-07-29T13:53:59;20.70;99.90
72865;DHT22;61000;48.120;11.548;2023-07-29T13:56:26;20.60;99.90
72865;DHT22;61000;48.120;11.548;2023-07-29T13:58:53;20.80;99.90
72865;DHT22;61000;48.120;11.548;2023-07-29T14:01:20;20.70;99.90
72865;DHT22;61000;48.120;11.548;2023-07-29T14:03:47;20.70;99.90
72865;DHT22;61000;48.120;11.548;2023-07-29T14:06:15;20.70;99.90
72865;DHT22;61000;48.120;11.548;2023-07-29T14:08:42;20.70;99.90
72865;DHT22;61000;48.120;11.548;2023-07-29T14:11:09;20.50;99.90
72865;DHT22;61000;48.120;11.548;2023-07-29T14:13:36;20.40;99.90
72865;DHT22;61000;48.120;11.548;2023-07-29T14:16:03;20.20;99.90
72865;DHT22;61000;48.120;11.548;2023-07-29T14:18:30;20.40;99.90
72865;DHT22;61000;48.120;11.548;2023-07-29T14:20:57;20.40;99.90
72865;DHT22;61000;48.120;11.548;2023-07-29T14:23:26;20.20;99.90
72865;DHT22;61000;48.120;11.548;2023-07-29T14:25:53;20.40;99.90
72865;DHT22;61000;48.120;11.548;2023-07-29T14:28:19;20.40;99.90
72865;DHT22;61000;48.120;11.548;2023-07-29T14:30:46;20.40;99.90
72865;DHT22;61000;48.120;11.548;2023-07-29T14:33:13;20.40;99.90
72865;DHT22;61000;48.120;11.548;2023-07-29T14:35:41;20.30;99.90
72865;DHT22;61000;48.120;11.548;2023-07-29T14:38:08;20.30;99.90
72865;DHT22;61000;48.120;11.548;2023-07-29T14:40:36;20.30;99.90
72865;DHT22;61000;48.120;11.548;2023-07-29T14:43:03;20.20;99.90
72865;DHT22;61000;48.120;11.548;2023-07-29T14:45:30;20.10;99.90
72865;DHT22;61000;48.120;11.548;2023-07-29T14:47:57;20.10;99.90
72865;DHT22;61000;48.120;11.548;2023-07-29T14:50:24;20.00;99.90
72865;DHT22;61000;48.120;11.548;2023-07-29T14:52:50;19.90;99.90
72865;DHT22;61000;48.120;11.548;2023-07-29T14:55:17;19.80;99.90
72865;DHT22;61000;48.120;11.548;2023-07-29T14:57:46;20.00;99.90
72865;DHT22;61000;48.120;11.548;2023-07-29T15:00:13;19.70;99.90
72865;DHT22;61000;48.120;11.548;2023-07-29T15:02:40;19.60;99.90
72865;DHT22;61000;48.120;11.548;2023-07-29T15:05:07;19.60;99.90
72865;DHT22;61000;48.120;11.548;2023-07-29T15:07:34;19.50;99.90
72865;DHT22;61000;48.120;11.548;2023-07-29T15:10:01;19.50;99.90
72865;DHT22;61000;48.120;11.548;2023-07-29T15:12:28;19.50;99.90
72865;DHT22;61000;48.120;11.548;2023-07-29T15:14:57;19.50;99.90
72865;DHT22;61000;48.120;11.548;2023-07-29T15:17:23;19.50;99.90
72865;DHT22;61000;48.120;11.548;2023-07-29T15:19:50;19.60;99.90
72865;DHT22;61000;48.120;11.548;2023-07-29T15:22:17;19.60;99.90
72865;DHT22;61000;48.120;11.548;2023-07-29T15:24:44;19.70;99.90
72865;DHT22;61000;48.120;11.548;2023-07-29T15:27:12;19.70;99.90
72865;DHT22;61000;48.120;11.548;2023-07-29T15:29:38;19.80;99.90